• Join FlightAware (Why Join?)
  • Login
  • US Flag 
09:23PM EDT


 

Airport Tracker/Info


-or-


 

Live Flight TrackerFlight Track Log ✈ GEC8188 ✈ 03-May-2013 ✈ EDDF / FRA - KORD

Flight Track Log - Related Links

Times and Time Zones

All times are in EDT time to prevent confusion due to time zone crossing. See the GEC8188 flight status page for this flight to view local times or setup timezone preferences in your user account.

Time Position Orientation Groundspeed Altitude Reporting Facility
EDT Latitude Longitude Course Direction KTS MPH feet Rate Location/Type
04:54PM 57.1982 -21.1472 304° West  Level Estimated
04:55PM 57.2218 -21.4070 280° West  Level Estimated
04:56PM 57.2448 -21.6669 279° West  Level Estimated
04:57PM 57.2673 -21.9272 279° West  Level Estimated
04:58PM 57.2893 -22.1877 279° West  Level Estimated
04:59PM 57.3107 -22.4486 279° West  Level Estimated
05:00PM 57.3316 -22.7098 279° West  Level Estimated
05:01PM 57.3519 -22.9713 278° West  Level Estimated
05:02PM 57.3717 -23.2330 278° West  Level Estimated
05:03PM 57.3909 -23.4950 278° West  Level Estimated
05:04PM 57.4096 -23.7573 278° West  Level Estimated
05:05PM 57.4278 -24.0199 277° West  Level Estimated
05:06PM 57.4454 -24.2827 277° West  Level Estimated
05:07PM 57.4624 -24.5458 277° West  Level Estimated
05:08PM 57.4789 -24.8091 277° West  Level Estimated
05:09PM 57.4949 -25.0726 277° West  Level Estimated
05:10PM 57.5103 -25.3364 276° West  Level Estimated
05:11PM 57.5252 -25.6004 276° West  Level Estimated
05:12PM 57.5395 -25.8646 276° West  Level Estimated
05:12PM 50.0000 -20.0000 265° West 537 618 34,000  Level ETMS Enhanced Traffic Management System
05:13PM 57.5532 -26.1290 276° West  Level Estimated
05:14PM 57.5664 -26.3936 275° West  Level Estimated
05:15PM 57.5791 -26.6584 275° West  Level Estimated
05:16PM 57.5912 -26.9233 275° West  Level Estimated
05:17PM 57.6027 -27.1885 275° West  Level Estimated
05:18PM 49.8991 -21.6158 264° West 537 618 34,000  Level FlightAware Transoceanic
05:19PM 49.8828 -21.8461 264° West 537 618 34,000  Level FlightAware Transoceanic
05:20PM 49.8661 -22.0762 263° West 537 618 34,000  Level FlightAware Transoceanic
05:21PM 49.8490 -22.3061 263° West 537 618 34,000  Level FlightAware Transoceanic
05:22PM 49.8314 -22.5359 263° West 537 618 34,000  Level FlightAware Transoceanic
05:23PM 49.8133 -22.7654 263° West 537 618 34,000  Level FlightAware Transoceanic
05:24PM 49.7948 -22.9949 263° West 537 618 34,000  Level FlightAware Transoceanic
05:25PM 49.7758 -23.2241 263° West 537 618 34,000  Level FlightAware Transoceanic
05:26PM 49.7564 -23.4532 262° West 537 618 34,000  Level FlightAware Transoceanic
05:27PM 49.7365 -23.6821 262° West 537 618 34,000  Level FlightAware Transoceanic
05:28PM 49.7162 -23.9107 262° West 537 618 34,000  Level FlightAware Transoceanic
05:29PM 49.6954 -24.1392 262° West 537 618 34,000  Level FlightAware Transoceanic
05:30PM 49.6742 -24.3675 262° West 537 618 34,000  Level FlightAware Transoceanic
05:31PM 49.6525 -24.5956 262° West 537 618 34,000  Level FlightAware Transoceanic
05:32PM 49.6304 -24.8235 261° West 537 618 34,000  Level FlightAware Transoceanic
05:33PM 49.6078 -25.0512 261° West 537 618 34,000  Level FlightAware Transoceanic
05:34PM 49.5848 -25.2787 261° West 537 618 34,000  Level FlightAware Transoceanic
05:35PM 49.5614 -25.5059 261° West 537 618 34,000  Level FlightAware Transoceanic
05:36PM 49.5375 -25.7330 261° West 537 618 34,000  Level FlightAware Transoceanic
05:37PM 49.5131 -25.9598 261° West 537 618 34,000  Level FlightAware Transoceanic
05:38PM 49.4883 -26.1864 260° West 537 618 34,000  Level FlightAware Transoceanic
05:39PM 49.4631 -26.4127 260° West 537 618 34,000  Level FlightAware Transoceanic
05:40PM 49.4374 -26.6388 260° West 537 618 34,000  Level FlightAware Transoceanic
05:41PM 49.4113 -26.8647 260° West 537 618 34,000  Level FlightAware Transoceanic
05:42PM 49.3848 -27.0903 260° West 537 618 34,000  Level FlightAware Transoceanic
05:43PM 49.3578 -27.3157 259° West 537 618 34,000  Level FlightAware Transoceanic
05:44PM 49.3303 -27.5409 259° West 537 618 34,000  Level FlightAware Transoceanic
05:45PM 49.3025 -27.7658 259° West 537 618 34,000  Level FlightAware Transoceanic
05:46PM 49.2742 -27.9904 259° West 537 618 34,000  Level FlightAware Transoceanic
05:47PM 49.2454 -28.2148 259° West 537 618 34,000  Level FlightAware Transoceanic
05:48PM 49.2163 -28.4389 259° West 537 618 34,000  Level FlightAware Transoceanic
05:49PM 49.1867 -28.6627 258° West 537 618 34,000  Level FlightAware Transoceanic
05:50PM 49.1566 -28.8863 258° West 537 618 34,000  Level FlightAware Transoceanic
05:51PM 49.1262 -29.1096 258° West 537 618 34,000  Level FlightAware Transoceanic
05:52PM 49.0953 -29.3326 258° West 537 618 34,000  Level FlightAware Transoceanic
05:53PM 49.0639 -29.5554 258° West 537 618 34,000  Level FlightAware Transoceanic
05:54PM 49.0322 -29.7778 258° West 537 618 34,000  Level FlightAware Transoceanic
05:55PM 49.0014 -29.9901 258° West  Level FlightAware Approximate
05:56PM 48.9703 -30.2020 257° West  Level FlightAware Approximate
05:57PM 48.9887 -30.1961 265° West  Level FlightAware Approximate
05:58PM 48.9758 -30.4125 265° West  Level FlightAware Approximate
05:59PM 48.9624 -30.6287 265° West  Level FlightAware Approximate
06:00PM 48.9487 -30.8447 265° West  Level FlightAware Approximate
06:01PM 48.9346 -31.0607 264° West  Level FlightAware Approximate
06:02PM 48.9201 -31.2765 264° West  Level FlightAware Approximate
06:03PM 48.9052 -31.4923 264° West  Level FlightAware Approximate
06:04PM 48.8899 -31.7078 264° West  Level FlightAware Approximate
06:05PM 48.8741 -31.9233 264° West  Level FlightAware Approximate
06:06PM 48.8580 -32.1386 264° West  Level FlightAware Approximate
06:07PM 48.8415 -32.3538 263° West  Level FlightAware Approximate
06:08PM 48.8246 -32.5688 263° West  Level FlightAware Approximate
06:09PM 48.8073 -32.7837 263° West  Level FlightAware Approximate
06:10PM 48.7895 -32.9984 263° West  Level FlightAware Approximate
06:11PM 48.7714 -33.2130 263° West  Level FlightAware Approximate
06:12PM 48.7529 -33.4274 263° West  Level FlightAware Approximate
06:13PM 48.7340 -33.6416 262° West  Level FlightAware Approximate
06:14PM 48.7146 -33.8557 262° West  Level FlightAware Approximate
06:15PM 48.6949 -34.0697 262° West  Level FlightAware Approximate
06:16PM 48.6748 -34.2834 262° West  Level FlightAware Approximate
06:17PM 48.6543 -34.4970 262° West  Level FlightAware Approximate
06:18PM 48.6334 -34.7104 262° West  Level FlightAware Approximate
06:19PM 48.6121 -34.9236 261° West  Level FlightAware Approximate
06:20PM 48.5905 -35.1367 261° West  Level FlightAware Approximate
06:21PM 48.5684 -35.3496 261° West  Level FlightAware Approximate
06:22PM 48.5459 -35.5622 261° West  Level FlightAware Approximate
06:23PM 48.5230 -35.7747 261° West  Level FlightAware Approximate
06:24PM 48.4998 -35.9870 261° West  Level FlightAware Approximate
06:25PM 48.4762 -36.1991 261° West  Level FlightAware Approximate
06:26PM 48.4527 -36.4112 261° West  Level FlightAware Approximate
06:27PM 48.4293 -36.6231 261° West  Level FlightAware Approximate
06:28PM 48.4055 -36.8349 260° West  Level FlightAware Approximate
06:29PM 48.3813 -37.0465 260° West  Level FlightAware Approximate
06:30PM 48.3567 -37.2578 260° West  Level FlightAware Approximate
06:31PM 48.3317 -37.4690 260° West  Level FlightAware Approximate
06:32PM 48.3063 -37.6799 260° West  Level FlightAware Approximate
06:33PM 48.2806 -37.8906 260° West  Level FlightAware Approximate
06:34PM 48.2544 -38.1012 260° West  Level FlightAware Approximate
06:35PM 48.2279 -38.3115 259° West  Level FlightAware Approximate
06:36PM 48.2010 -38.5215 259° West  Level FlightAware Approximate
06:37PM 48.1737 -38.7314 259° West  Level FlightAware Approximate
06:38PM 48.1461 -38.9410 259° West  Level FlightAware Approximate
06:39PM 48.1180 -39.1504 259° West  Level FlightAware Approximate
06:40PM 48.0896 -39.3596 259° West  Level FlightAware Approximate
06:41PM 48.0608 -39.5686 258° West  Level FlightAware Approximate
06:42PM 48.0316 -39.7773 258° West  Level FlightAware Approximate
06:43PM 48.0020 -39.9857 258° West  Level FlightAware Approximate
06:44PM 47.9885 -40.1977 265° West  Level FlightAware Approximate
06:45PM 47.9759 -40.4098 265° West  Level FlightAware Approximate
06:46PM 47.9628 -40.6218 265° West  Level FlightAware Approximate
06:47PM 47.9493 -40.8337 265° West  Level FlightAware Approximate
06:48PM 47.9355 -41.0455 265° West  Level FlightAware Approximate
06:49PM 47.9212 -41.2572 264° West  Level FlightAware Approximate
06:50PM 47.9066 -41.4688 264° West  Level FlightAware Approximate
06:51PM 47.8916 -41.6802 264° West  Level FlightAware Approximate
06:52PM 47.8762 -41.8915 264° West  Level FlightAware Approximate
06:53PM 47.8604 -42.1027 264° West  Level FlightAware Approximate
06:54PM 47.8442 -42.3138 264° West  Level FlightAware Approximate
06:55PM 47.8276 -42.5247 263° West  Level FlightAware Approximate
06:56PM 47.8107 -42.7355 263° West  Level FlightAware Approximate
06:57PM 47.7934 -42.9461 263° West  Level FlightAware Approximate
06:58PM 47.7756 -43.1566 263° West  Level FlightAware Approximate
06:59PM 47.7575 -43.3670 263° West  Level FlightAware Approximate
07:00PM 47.7390 -43.5772 263° West  Level FlightAware Approximate
07:01PM 47.7201 -43.7873 262° West  Level FlightAware Approximate
07:02PM 47.7009 -43.9972 262° West  Level FlightAware Approximate
07:03PM 47.6813 -44.2069 262° West  Level FlightAware Approximate
07:04PM 47.6612 -44.4165 262° West  Level FlightAware Approximate
07:05PM 47.6408 -44.6259 262° West  Level FlightAware Approximate
07:06PM 47.6200 -44.8352 262° West  Level FlightAware Approximate
07:07PM 47.5989 -45.0443 262° West  Level FlightAware Approximate
07:08PM 47.5782 -45.2534 262° West  Level FlightAware Approximate
07:09PM 47.5571 -45.4624 262° West  Level FlightAware Approximate
07:10PM 47.5356 -45.6711 261° West  Level FlightAware Approximate
07:11PM 47.5138 -45.8797 261° West  Level FlightAware Approximate
07:12PM 47.4916 -46.0882 261° West  Level FlightAware Approximate
07:13PM 47.4690 -46.2964 261° West  Level FlightAware Approximate
07:14PM 47.4460 -46.5045 261° West  Level FlightAware Approximate
07:15PM 47.4226 -46.7124 261° West  Level FlightAware Approximate
07:16PM 47.3989 -46.9201 260° West  Level FlightAware Approximate
07:17PM 47.3748 -47.1276 260° West  Level FlightAware Approximate
07:18PM 47.3503 -47.3349 260° West  Level FlightAware Approximate
07:19PM 47.3255 -47.5420 260° West  Level FlightAware Approximate
07:20PM 47.3002 -47.7490 260° West  Level FlightAware Approximate
07:21PM 47.2746 -47.9557 260° West  Level FlightAware Approximate
07:22PM 47.2487 -48.1622 260° West  Level FlightAware Approximate
07:23PM 47.2223 -48.3686 259° West  Level FlightAware Approximate
07:24PM 47.1956 -48.5747 259° West  Level FlightAware Approximate
07:25PM 47.1685 -48.7806 259° West  Level FlightAware Approximate
07:26PM 47.1411 -48.9863 259° West  Level FlightAware Approximate
07:27PM 47.1133 -49.1918 259° West  Level FlightAware Approximate
07:27PM 47.0720 -49.6260 259° West 512 589 34,000  Level FlightAware
07:28PM 47.0851 -49.3970 259° West  Level FlightAware Approximate
07:28PM 47.0490 -49.7810 258° West 511 588 34,000  Level FlightAware
07:29PM 47.0280 -49.9320 259° West 511 588 34,000  Level FlightAware
07:29PM 47.0130 -50.0480 259° West 511 588 34,000  Level FlightAware
07:30PM 46.9870 -50.2310 258° West 511 588 34,000  Level FlightAware
07:31PM 46.9720 -50.3750 261° West 510 587 34,000  Level FlightAware
07:32PM 46.9580 -50.5080 261° West 510 587 34,000  Level FlightAware
07:32PM 46.9450 -50.6250 261° West 510 587 34,000  Level FlightAware
07:33PM 46.9330 -50.7410 261° West 510 587 34,000  Level FlightAware
07:34PM 46.9200 -50.8570 261° West 510 587 34,000  Level FlightAware
07:34PM 46.9040 -51.0020 261° West 510 587 34,000 60 Level FlightAware
07:35PM 47.0010 -51.1840 308° West 523 602 34,100 60 Climbing FlightAware
07:35PM 47.0090 -51.3130 275° West 524 603 34,100 -120 Level FlightAware
07:36PM 47.0180 -51.4630 275° West 525 604 34,000  Descending FlightAware
07:37PM 47.0270 -51.6220 275° West 525 604 34,100 60 Climbing FlightAware
07:37PM 47.0350 -51.7650 275° West 525 604 34,100 -120 Level FlightAware
07:38PM 47.0440 -51.9190 275° West 524 603 34,000 -120 Descending FlightAware
07:39PM 47.0530 -52.0800 275° West 523 602 34,000  Level FlightAware
07:40PM 47.0600 -52.2190 274° West 523 602 34,000  Level FlightAware
07:40PM 47.0690 -52.3820 275° West 522 601 34,000  Level FlightAware
07:41PM 47.0760 -52.5230 274° West 521 600 34,000  Level FlightAware
07:42PM 47.0830 -52.6620 274° West 520 598 34,000  Level FlightAware
07:42PM 47.0900 -52.8190 274° West 520 598 34,000  Level FlightAware
07:43PM 47.0970 -52.9580 274° West 520 598 34,000  Level FlightAware
07:44PM 47.1040 -53.1190 274° West 520 598 34,000  Level FlightAware
07:45PM 47.1100 -53.2600 274° West 521 600 34,000  Level FlightAware
07:45PM 47.1160 -53.4000 274° West 521 600 34,000  Level FlightAware
07:46PM 47.1230 -53.5560 274° West 520 598 34,000  Level FlightAware
07:47PM 47.1280 -53.6970 273° West 521 600 34,000  Level FlightAware
07:47PM 47.1340 -53.8590 273° West 521 600 34,000  Level FlightAware
07:48PM 47.1400 -54.0010 274° West 522 601 34,000  Level FlightAware
07:49PM 47.1450 -54.1430 273° West 523 602 34,000  Level FlightAware
07:49PM 47.1500 -54.2970 273° West 523 602 34,000  Level FlightAware
07:50PM 47.1550 -54.4400 273° West 523 602 34,000  Level FlightAware
07:51PM 47.1600 -54.6030 273° West 523 602 34,000  Level FlightAware
07:52PM 47.1650 -54.7440 273° West 523 602 34,000  Level FlightAware
07:52PM 47.1680 -54.8730 272° West 523 602 34,000  Level FlightAware
07:53PM 47.1720 -55.0010 273° West 522 601 34,000  Level FlightAware
07:54PM 47.1760 -55.1530 272° West 522 601 34,000  Level FlightAware
07:54PM 47.1810 -55.3300 272° West 521 600 34,000  Level FlightAware
07:55PM 47.1850 -55.4860 272° West 520 598 34,000  Level FlightAware
07:56PM 47.1880 -55.6120 272° West 519 597 34,000  Level FlightAware
07:56PM 47.1910 -55.7760 272° West 518 596 34,000  Level FlightAware
07:57PM 47.1940 -55.9140 272° West 518 596 34,000  Level FlightAware
07:58PM 47.1970 -56.0870 272° West 517 595 34,000  Level FlightAware
07:59PM 47.2000 -56.2210 272° West 517 595 34,000  Level FlightAware
07:59PM 47.2020 -56.3690 271° West 516 594 34,000  Level FlightAware
08:00PM 47.2050 -56.5230 272° West 514 592 34,000  Level FlightAware
08:01PM 47.2070 -56.6620 271° West 515 593 34,000  Level FlightAware
08:01PM 47.2080 -56.8030 271° West 515 593 34,000  Level FlightAware
08:02PM 47.2100 -56.9570 271° West 514 592 34,000  Level FlightAware
08:03PM 47.2120 -57.0960 271° West 514 592 34,000  Level FlightAware
08:03PM 47.2130 -57.2560 271° West 513 590 34,000  Level FlightAware
08:04PM 47.2140 -57.3510 271° West 512 589 34,000  Level FlightAware
08:05PM 47.2150 -57.5210 271° West 511 588 34,000 60 Level FlightAware
08:06PM 47.2160 -57.6940 271° West 509 586 34,100  Climbing FlightAware
08:06PM 47.2170 -57.8830 271° West 505 581 34,000 -60 Descending FlightAware
08:07PM 47.2170 -58.0450 270° West 494 568 34,000  Level FlightAware
08:08PM 47.2170 -58.1590 270° West 494 568 34,000  Level FlightAware
08:09PM 47.2170 -58.2730 270° West 494 568 34,000  Level FlightAware
08:09PM 47.2170 -58.3880 270° West 494 568 34,000  Level FlightAware
08:10PM 47.2170 -58.5310 270° West 494 568 34,000  Level FlightAware
08:11PM 47.2170 -58.6450 270° West 494 568 34,000  Level FlightAware
08:12PM 47.2170 -58.7590 270° West 494 568 34,000  Level FlightAware
08:12PM 47.2170 -58.8740 270° West 494 568 34,000 60 Level FlightAware
08:13PM 47.2130 -59.1680 269° West 480 552 34,100 60 Climbing FlightAware
08:14PM 47.2120 -59.2760 269° West 480 552 34,100 -120 Level FlightAware
08:14PM 47.2100 -59.4340 269° West 481 554 34,000 -120 Descending FlightAware
08:15PM 47.2080 -59.5660 269° West 481 554 34,000  Level FlightAware
08:16PM 47.2050 -59.6770 268° West 481 554 34,000  Level FlightAware
08:16PM 47.2020 -59.7880 268° West 481 554 34,000  Level FlightAware
08:17PM 47.2000 -59.8990 269° West 481 554 34,000  Level FlightAware
08:18PM 47.2010 -60.1050 270° West 482 555 34,000  Level FlightAware
08:19PM 47.1990 -60.2490 269° West 483 556 34,000  Level FlightAware
08:19PM 47.1960 -60.3860 268° West 483 556 34,000  Level FlightAware
08:20PM 47.1930 -60.4980 268° West 483 556 34,000  Level FlightAware
08:21PM 47.1900 -60.6090 268° West 483 556 34,000  Level FlightAware
08:21PM 47.1880 -60.7210 269° West 483 556 34,000  Level FlightAware
08:22PM 47.1840 -60.9340 268° West 485 558 34,000 60 Level FlightAware
08:23PM 47.1800 -61.0920 268° West 485 558 34,100 60 Climbing FlightAware
08:23PM 47.1760 -61.2090 267° West 485 558 34,100  Level FlightAware
08:24PM 47.1720 -61.3210 267° West 485 558 34,100  Level FlightAware
08:25PM 47.1680 -61.4330 267° West 485 558 34,100  Level FlightAware
08:26PM 47.1630 -61.5730 267° West 485 558 34,100  Level FlightAware
08:26PM 47.1590 -61.6850 267° West 485 558 34,100  Level FlightAware
08:27PM 47.1550 -61.7970 267° West 485 558 34,100  Level FlightAware
08:27PM 47.1520 -61.8810 267° West 485 558 34,100  Level FlightAware
08:28PM 47.1480 -61.9930 267° West 485 558 34,100  Level FlightAware
08:29PM 47.1440 -62.1050 267° West 485 558 34,100  Level FlightAware
08:29PM 47.1400 -62.2170 267° West 485 558 34,100  Level FlightAware
08:30PM 47.1350 -62.3570 267° West 485 558 34,100  Level FlightAware
08:31PM 47.1310 -62.4690 267° West 485 558 34,100  Level FlightAware
08:32PM 47.1270 -62.5810 267° West 485 558 34,100  Level FlightAware
08:32PM 47.1230 -62.6930 267° West 485 558 34,100 -1,380 Level FlightAware
08:33PM 47.1000 -63.1167 267° West 490 564 32,000 -1,140 Descending Gander Center
08:34PM 47.1000 -63.3167 270° West 490 564 32,000  Level Gander Center
08:35PM 47.0667 -63.5167 256° West 490 564 32,000  Level Gander Center
08:36PM 47.0667 -63.7333 270° West 490 564 32,000  Level Gander Center
08:37PM 47.0667 -63.9000 270° West 490 564 32,000  Level Gander Center
08:38PM 47.0500 -64.1500 265° West 480 552 32,000  Level Moncton Center
08:39PM 47.0333 -64.3500 263° West 480 552 32,000  Level Moncton Center
08:40PM 47.0333 -64.5500 270° West 490 564 32,000  Level Moncton Center
08:41PM 47.0167 -64.7333 262° West 480 552 32,000  Level Moncton Center
08:42PM 47.0000 -64.9667 264° West 490 564 32,000  Level Moncton Center
08:43PM 47.0000 -65.1333 270° West 490 564 32,000  Level Moncton Center
08:44PM 46.9833 -65.3500 264° West 490 564 32,000  Level Moncton Center
08:45PM 46.9667 -65.5500 263° West 490 564 32,000  Level Moncton Center
08:46PM 46.9500 -65.7500 263° West 490 564 32,000  Level Moncton Center
08:47PM 46.9333 -65.9333 262° West 490 564 32,000  Level Moncton Center
08:48PM 46.9333 -66.1667 270° West 490 564 32,000  Level Moncton Center
08:49PM 46.9167 -66.3500 262° West 500 575 32,000  Level Moncton Center
08:50PM 46.9000 -66.5500 263° West 500 575 32,000  Level Moncton Center
08:51PM 46.8833 -66.7500 263° West 500 575 32,000  Level Moncton Center
08:57PM 46.7640 -67.9520 263° West 513 590 32,100  Climbing FlightAware
08:58PM 46.7370 -68.1120 256° West 509 586 32,000 -120 Descending FlightAware
08:59PM 46.7170 -68.2370 257° West 507 583 32,000 300 Level FlightAware
08:59PM 46.6940 -68.3770 257° West 505 581 32,400 780 Climbing FlightAware
09:00PM 46.6720 -68.5110 257° West 506 582 33,100 960 Climbing FlightAware
09:01PM 46.6470 -68.6600 256° West 507 583 33,800 960 Climbing FlightAware
09:01PM 46.6320 -68.7500 256° West 498 573 34,300 960 Climbing FlightAware
09:02PM 46.6022 -68.9467 256° West 507 583 35,200 840 Climbing Boston Center
09:03PM 46.5681 -69.1389 256° West 502 578 36,000 360 Climbing Boston Center
09:04PM 46.5317 -69.3311 255° West 497 572 36,000  Level Boston Center
09:05PM 46.4972 -69.5289 256° West 497 572 36,000  Level Boston Center
09:06PM 46.4622 -69.7206 255° West 497 572 36,000  Level Boston Center
09:07PM 46.4272 -69.9150 255° West 497 572 36,000  Level Boston Center
09:08PM 46.3833 -70.1500 255° West 490 564 36,000  Level Moncton Center
09:09PM 46.3333 -70.3333 249° West 490 564 36,000  Level Moncton Center
09:10PM 46.3167 -70.5333 263° West 500 575 36,000  Level Moncton Center
09:11PM 46.2667 -70.7167 249° West 500 575 36,100  Climbing Moncton Center
09:12PM 46.2333 -70.9167 257° West 490 564 36,000 -60 Descending Moncton Center
09:13PM 46.2000 -71.1000 255° West 490 564 36,000  Level Moncton Center
09:14PM 46.1667 -71.2833 255° West 490 564 36,000  Level Moncton Center
09:15PM 46.1167 -71.5000 252° West 490 564 36,100  Climbing Moncton Center
09:16PM 46.1000 -71.6667 262° West 490 564 36,100 -60 Level Moncton Center
09:17PM 46.0500 -71.8500 249° West 490 564 36,000 -60 Descending Moncton Center
09:18PM 46.0167 -72.0667 258° West 490 564 36,000  Level Moncton Center
09:19PM 45.9667 -72.2333 247° West 490 564 36,000  Level Moncton Center
09:20PM 45.9333 -72.4333 257° West 490 564 36,000  Level Moncton Center
09:21PM 45.9000 -72.6000 254° West 490 564 36,000  Level Moncton Center
09:22PM 45.8667 -72.7833 255° West 480 552 36,000  Level Moncton Center
09:23PM 45.8167 -72.9833 250° West 490 564 36,000  Level Moncton Center
09:24PM 45.7833 -73.1667 255° West 490 564 36,100  Climbing Moncton Center
09:25PM 45.7333 -73.3500 249° West 490 564 36,000 -60 Descending Moncton Center
09:26PM 45.7000 -73.5333 255° West 480 552 36,000  Level Moncton Center
09:32PM 45.4940 -74.5090 255° West 481 554 36,100  Climbing FlightAware
09:33PM 45.4640 -74.6390 252° West 478 550 36,100 -120 Level FlightAware
09:33PM 45.4370 -74.7590 252° West 475 547 36,000 -120 Descending FlightAware
09:34PM 45.4100 -74.8770 252° West 474 545 36,000  Level FlightAware
09:35PM 45.3780 -75.0130 252° West 471 542 36,000  Level FlightAware
09:35PM 45.3510 -75.1300 252° West 471 542 36,000  Level FlightAware
09:36PM 45.3210 -75.2590 252° West 472 543 36,000  Level FlightAware
09:37PM 45.2930 -75.3780 252° West 475 547 36,000 60 Level FlightAware
09:38PM 45.2620 -75.5080 251° West 476 548 36,100 60 Climbing FlightAware
09:38PM 45.2320 -75.6310 251° West 478 550 36,100  Level FlightAware
09:39PM 45.2040 -75.7490 251° West 477 549 36,100 -120 Level FlightAware
09:40PM 45.1730 -75.8790 251° West 475 547 36,000 -120 Descending FlightAware
09:40PM 45.1440 -75.9960 251° West 475 547 36,000  Level FlightAware
09:41PM 45.1120 -76.1290 251° West 473 544 36,000  Level FlightAware
09:42PM 45.0830 -76.2470 251° West 472 543 36,000  Level FlightAware
09:42PM 45.0550 -76.3610 251° West 470 541 36,000  Level FlightAware
09:43PM 45.0240 -76.4850 251° West 467 537 36,000  Level FlightAware
09:44PM 44.9970 -76.5950 251° West 466 536 36,000  Level FlightAware
09:44PM 44.9680 -76.7100 250° West 465 535 36,000  Level FlightAware
09:45PM 44.9350 -76.8400 250° West 465 535 36,000  Level FlightAware
09:46PM 44.9060 -76.9560 251° West 466 536 36,000  Level FlightAware
09:47PM 44.8790 -77.0620 250° West 470 541 36,000  Level FlightAware
09:47PM 44.8440 -77.1980 250° West 472 543 36,000 60 Level FlightAware
09:48PM 44.8120 -77.3250 250° West 474 545 36,100 60 Climbing FlightAware
09:49PM 44.7680 -77.4930 250° West 474 545 36,100 -120 Level FlightAware
09:50PM 44.7390 -77.6050 250° West 473 544 36,000 -120 Descending FlightAware
09:50PM 44.7050 -77.7340 250° West 473 544 36,000  Level FlightAware
09:51PM 44.6750 -77.8480 250° West 472 543 36,000  Level FlightAware
09:52PM 44.6440 -77.9660 250° West 472 543 36,000  Level FlightAware
09:52PM 44.6100 -78.0940 250° West 471 542 36,000  Level FlightAware
09:53PM 44.5800 -78.2090 250° West 469 540 36,000  Level FlightAware
09:54PM 44.5470 -78.3290 249° West 469 540 36,000  Level FlightAware
09:55PM 44.5150 -78.4510 250° West 467 537 36,000  Level FlightAware
09:55PM 44.4850 -78.5620 249° West 465 535 36,000  Level FlightAware
09:56PM 44.4520 -78.6800 249° West 465 535 36,000  Level FlightAware
09:58PM 44.3540 -79.0340 249° West 468 539 36,000  Level FlightAware
09:59PM 44.3240 -79.1450 249° West 469 540 36,000  Level FlightAware
09:59PM 44.2880 -79.2730 249° West 470 541 36,000  Level FlightAware
10:00PM 44.2580 -79.3810 249° West 471 542 36,000 60 Level FlightAware
10:01PM 44.2220 -79.5080 248° West 472 543 36,100 60 Climbing FlightAware
10:02PM 44.1890 -79.6250 249° West 473 544 36,100  Level FlightAware
10:02PM 44.1570 -79.7390 249° West 472 543 36,100  Level FlightAware
10:03PM 44.1210 -79.8650 248° West 470 541 36,100 -120 Level FlightAware
10:04PM 44.0910 -79.9720 249° West 471 542 36,000 -120 Descending FlightAware
10:04PM 44.0570 -80.0880 248° West 470 541 36,000  Level FlightAware
10:05PM 44.0210 -80.2130 248° West 469 540 36,000  Level FlightAware
10:06PM 43.9890 -80.3230 248° West 469 540 36,000  Level FlightAware
10:06PM 43.9510 -80.4510 248° West 469 540 36,000  Level FlightAware
10:07PM 43.9190 -80.5620 248° West 470 541 36,000  Level FlightAware
10:08PM 43.8900 -80.6590 247° West 470 541 36,000 60 Level FlightAware
10:09PM 43.8510 -80.7990 249° West 469 540 36,100 60 Climbing FlightAware
10:09PM 43.8250 -80.9120 252° West 469 540 36,100 -120 Level FlightAware
10:10PM 43.7980 -81.0250 252° West 467 537 36,000 -120 Descending FlightAware
10:11PM 43.7670 -81.1540 252° West 465 535 36,000  Level FlightAware
10:11PM 43.7400 -81.2680 252° West 464 534 36,000  Level FlightAware
10:12PM 43.7110 -81.3920 252° West 464 534 36,000  Level FlightAware
10:13PM 43.6830 -81.5060 251° West 463 533 36,000  Level FlightAware
10:13PM 43.6560 -81.6170 251° West 462 532 36,000  Level FlightAware
10:14PM 43.6250 -81.7440 251° West 461 531 36,000  Level FlightAware
10:15PM 43.5980 -81.8540 251° West 462 532 36,000  Level FlightAware
10:16PM 43.5670 -81.9780 251° West 464 534 36,000  Level FlightAware
10:16PM 43.5410 -82.0860 252° West 466 536 36,000 60 Level FlightAware
10:17PM 43.5120 -82.2020 251° West 467 537 36,100 60 Climbing FlightAware
10:18PM 43.4810 -82.3230 251° West 468 539 36,100  Level FlightAware
10:18PM 43.4490 -82.4520 251° West 468 539 36,100 -60 Level FlightAware
10:19PM 43.4140 -82.5910 251° West 466 536 36,000  Descending FlightAware
10:20PM 43.3860 -82.6990 250° West 463 533 36,100  Climbing FlightAware
10:21PM 43.3590 -82.8180 253° West 458 527 36,000 -120 Descending FlightAware
10:21PM 43.3310 -82.9600 255° West 453 521 36,000  Level FlightAware
10:22PM 43.3030 -83.1000 255° West 451 519 36,000  Level FlightAware
10:23PM 43.2820 -83.2020 254° West 454 522 36,000  Level FlightAware
10:24PM 43.2560 -83.3290 254° West 459 528 36,000 60 Level FlightAware
10:24PM 43.2320 -83.4450 254° West 462 532 36,100 60 Climbing FlightAware
10:25PM 43.2090 -83.5560 254° West 465 535 36,100  Level FlightAware
10:26PM 43.1810 -83.6920 254° West 463 533 36,100 -60 Level FlightAware
10:27PM 43.1510 -83.8350 254° West 458 527 36,000 -60 Descending FlightAware
10:28PM 43.1220 -83.9720 254° West 457 526 36,000  Level FlightAware
10:28PM 43.0940 -84.1030 254° West 455 524 36,000  Level FlightAware
10:29PM 43.0690 -84.2220 254° West 459 528 36,000 -540 Level FlightAware
10:30PM 43.0420 -84.3490 254° West 464 534 35,300 -1,020 Descending FlightAware
10:30PM 43.0160 -84.4700 254° West 468 539 34,600 -1,020 Descending FlightAware
10:31PM 42.9860 -84.6090 254° West 474 545 33,900 -1,020 Descending FlightAware
10:32PM 42.9610 -84.7230 253° West 473 544 33,200 -1,020 Descending FlightAware
10:33PM 42.9330 -84.8490 253° West 479 551 32,500 -900 Descending FlightAware
10:33PM 42.9060 -84.9690 253° West 483 556 32,000 -420 Descending FlightAware
10:34PM 42.8810 -85.0830 253° West 481 554 32,000  Level FlightAware
10:35PM 42.8510 -85.2130 253° West 483 556 32,000 -480 Level FlightAware
10:35PM 42.8260 -85.3290 254° West 485 558 31,400 -2,100 Descending FlightAware
10:36PM 42.7950 -85.4640 253° West 488 562 29,100 -2,340 Descending FlightAware
10:37PM 42.7720 -85.5810 255° West 470 541 28,100 -2,160 Descending FlightAware
10:37PM 42.7500 -85.7070 257° West 473 544 26,100 -2,340 Descending FlightAware
10:38PM 42.7290 -85.8220 256° West 468 539 24,800 -2,040 Descending FlightAware
10:39PM 42.7080 -85.9390 256° West 455 524 23,400 -1,920 Descending FlightAware
10:40PM 42.6860 -86.0590 256° West 433 498 22,100 -1,980 Descending FlightAware
10:40PM 42.6660 -86.1640 256° West 428 493 20,600 -2,160 Descending FlightAware
10:41PM 42.6460 -86.2740 256° West 415 478 19,100 -1,800 Descending FlightAware
10:42PM 42.6260 -86.3780 255° West 405 466 18,100 -1,320 Descending FlightAware
10:42PM 42.6080 -86.4740 256° West 409 471 17,400 -1,020 Descending FlightAware
10:43PM 42.5870 -86.5870 256° West 404 465 16,700 -1,020 Descending FlightAware
10:44PM 42.5680 -86.6860 255° West 403 464 16,000 -1,020 Descending FlightAware
10:44PM 42.5470 -86.7770 253° West 394 453 15,400 -1,020 Descending FlightAware
10:45PM 42.5190 -86.8800 250° West 374 430 14,600 -1,500 Descending FlightAware
10:46PM 42.4970 -86.9600 250° West 370 426 13,400 -1,080 Descending FlightAware
10:47PM 42.4700 -87.0580 250° West 375 432 13,100 -1,620 Descending FlightAware
10:47PM 42.4450 -87.1520 250° West 366 421 11,000 -2,100 Descending FlightAware
10:48PM 42.4200 -87.2410 249° West 367 422 10,300 -840 Descending FlightAware
10:48PM 42.4010 -87.3120 250° West 364 419 10,000 -300 Descending FlightAware
10:49PM 42.3850 -87.3700 250° West 364 419 10,000  Level FlightAware
10:49PM 42.3770 -87.4000 250° West 363 418 10,000  Level FlightAware
10:50PM 42.3590 -87.4630 249° West 364 419 10,000  Level FlightAware
10:50PM 42.3410 -87.5190 247° West 360 414 10,000  Level FlightAware
10:51PM 42.3090 -87.5660 227° Southwest 351 404 10,000  Level FlightAware
10:51PM 42.2710 -87.6060 218° Southwest 352 405 10,000  Level FlightAware
10:51PM 42.2400 -87.6390 218° Southwest 335 386 10,000 -120 Level FlightAware
10:52PM 42.2060 -87.6760 219° Southwest 305 351 9,900 -480 Descending FlightAware
10:52PM 42.1770 -87.7060 217° Southwest 290 334 9,600 -900 Descending FlightAware
10:53PM 42.1460 -87.7390 218° Southwest 281 323 9,100 -1,080 Descending FlightAware
10:53PM 42.1310 -87.7550 218° Southwest 280 322 8,800 -1,080 Descending FlightAware
10:54PM 42.1060 -87.7820 219° Southwest 277 319 8,400 -1,080 Descending FlightAware
10:54PM 42.0930 -87.7980 222° Southwest 280 322 8,100 -1,080 Descending FlightAware
10:54PM 42.0730 -87.8450 240° Southwest 285 328 7,600 -1,020 Descending FlightAware
10:55PM 42.0570 -87.8860 242° Southwest 284 327 7,200 -660 Descending FlightAware
10:55PM 42.0430 -87.9330 248° West 293 337 7,000 -360 Descending FlightAware
10:55PM 42.0430 -87.9400 270° West 295 339 7,000  Level FlightAware
10:56PM 42.0430 -88.0030 270° West 296 341 7,000  Level FlightAware
10:56PM 42.0440 -88.0580 271° West 296 341 7,000 -120 Level FlightAware
10:57PM 42.0450 -88.1250 271° West 265 305 6,900 -600 Descending FlightAware
10:57PM 42.0460 -88.1670 272° West 258 297 6,400 -1,140 Descending FlightAware
10:58PM 42.0470 -88.2180 272° West 257 296 5,900 -900 Descending FlightAware
10:58PM 42.0470 -88.2310 270° West 251 289 5,800 -600 Descending FlightAware
10:58PM 42.0470 -88.2630 270° West 230 265 5,600 -540 Descending FlightAware
10:59PM 42.0380 -88.2800 235° Southwest 196 226 5,500 -600 Descending FlightAware
10:59PM 42.0260 -88.2860 200° South 171 197 5,300 -600 Descending FlightAware
10:59PM 42.0080 -88.2890 187° South 168 193 5,100 -480 Descending FlightAware
11:00PM 41.9970 -88.2910 188° South 164 189 5,000 -240 Descending FlightAware
11:00PM 41.9850 -88.2930 187° South 164 189 5,000  Level FlightAware
11:00PM 41.9750 -88.2910 172° South 155 178 5,000  Level FlightAware
11:00PM 41.9700 -88.2840 134° Southeast 151 174 5,000  Level FlightAware
11:01PM 41.9680 -88.2580 96° East 156 180 5,000  Level FlightAware
11:01PM 41.9690 -88.2410 85° East 158 182 5,000 -180 Level FlightAware
11:01PM 41.9690 -88.2190 90° East 157 181 4,900 -720 Descending FlightAware
11:02PM 41.9690 -88.1920 90° East 160 184 4,400 -1,080 Descending FlightAware
11:02PM 41.9690 -88.1670 90° East 154 177 4,000 -840 Descending FlightAware
11:03PM 41.9690 -88.1340 90° East 156 180 3,600 -840 Descending FlightAware
11:03PM 41.9690 -88.1090 90° East 156 180 3,200 -900 Descending FlightAware
11:04PM 41.9690 -88.0810 90° East 153 176 2,800 -840 Descending FlightAware
11:04PM 41.9690 -88.0650 90° East 151 174 2,600 -840 Descending FlightAware
11:05PM 41.9690 -88.0400 90° East 148 170 2,200 -780 Descending FlightAware
11:05PM 41.9690 -88.0160 90° East 148 170 1,900 -780 Descending FlightAware
11:05PM 41.9690 -88.0020 90° East 138 159 1,700 -720 Descending FlightAware
11:06PM 41.9690 -87.9790 90° East 131 151 1,400 -780 Descending FlightAware
11:06PM 41.9690 -87.9540 90° East 147 169 1,000 -840 Descending FlightAware
11:07PM 41.9690 -87.9340 90° East 149 171 700 -720 Descending FlightAware